Time;durP1;ratioP1;P1;durP2;ratioP2;P2;SDS_P1;SDS_P2;PMS_P1;PMS_P2;Temp;Humidity;BMP_temperature;BMP_pressure;BME280_temperature;BME280_humidity;BME280_pressure;Samples;Min_cycle;Max_cycle;Signal;HPM_P1;HPM_P2
2022/08/27 00:01:27;;;;;;;50.55;34.95;;;;;;;18.27;89.83;98062.44;7389146;19;20019;-72
2022/08/27 00:03:55;;;;;;;50.67;33.78;;;;;;;18.24;90.07;98068.22;7390210;19;20025;-73
2022/08/27 00:06:23;;;;;;;49.13;33.53;;;;;;;18.23;90.11;98066.59;7383315;19;20101;-72
2022/08/27 00:08:51;;;;;;;46.47;34.33;;;;;;;18.24;90.11;98065.56;7389742;19;20025;-72
2022/08/27 00:11:19;;;;;;;53.40;33.10;;;;;;;18.24;90.22;98057.53;7392162;19;20011;-72
2022/08/27 00:13:46;;;;;;;52.97;35.25;;;;;;;18.26;90.35;98060.00;7388536;19;20507;-72
2022/08/27 00:16:15;;;;;;;53.17;35.88;;;;;;;18.25;90.43;98053.84;7383420;19;20010;-72
2022/08/27 00:18:44;;;;;;;53.20;37.35;;;;;;;18.29;90.27;98059.56;7391904;19;20018;-72
2022/08/27 00:21:14;;;;;;;54.88;38.53;;;;;;;18.25;90.39;98055.69;7390256;19;20041;-72
2022/08/27 00:23:42;;;;;;;54.22;35.70;;;;;;;18.24;90.27;98062.88;7391690;19;20345;-72
2022/08/27 00:26:09;;;;;;;59.28;36.33;;;;;;;18.21;90.35;98066.00;7388577;19;20025;-72
2022/08/27 00:28:36;;;;;;;50.15;34.35;;;;;;;18.25;90.25;98075.25;7388906;19;20021;-72
2022/08/27 00:31:03;;;;;;;52.80;32.22;;;;;;;18.24;90.19;98078.13;7384792;19;20379;-72
2022/08/27 00:33:30;;;;;;;47.30;32.05;;;;;;;18.23;90.24;98074.63;7386073;19;20002;-71
2022/08/27 00:35:57;;;;;;;49.15;33.80;;;;;;;18.21;90.34;98069.47;7390042;19;20019;-72
2022/08/27 00:38:24;;;;;;;49.72;35.10;;;;;;;18.21;90.41;98069.47;7392414;19;20015;-71
2022/08/27 00:40:52;;;;;;;60.05;39.83;;;;;;;18.21;90.49;98066.81;7389658;19;20021;-72
2022/08/27 00:43:22;;;;;;;61.05;37.80;;;;;;;18.25;90.48;98075.25;7393335;19;20502;-71
2022/08/27 00:45:50;;;;;;;58.70;40.90;;;;;;;18.27;90.47;98067.81;7392415;19;20373;-71
2022/08/27 00:48:20;;;;;;;61.47;40.50;;;;;;;18.27;90.46;98070.47;7383177;19;20018;-72
2022/08/27 00:50:50;;;;;;;67.18;40.03;;;;;;;18.25;90.38;98066.41;7389367;19;20009;-72
2022/08/27 00:53:22;;;;;;;57.17;39.75;;;;;;;18.28;90.57;98063.28;7391370;19;20100;-72
2022/08/27 00:55:58;;;;;;;57.95;40.30;;;;;;;18.25;90.49;98067.22;7387434;19;20006;-72
2022/08/27 00:58:36;;;;;;;57.13;42.13;;;;;;;18.29;90.13;98063.06;7392139;19;20010;-71
2022/08/27 01:01:10;;;;;;;61.95;41.17;;;;;;;18.31;90.05;98062.88;7388620;19;20010;-72
2022/08/27 01:03:38;;;;;;;57.40;41.63;;;;;;;18.29;90.15;98065.75;7389119;19;20031;-72
2022/08/27 01:06:08;;;;;;;61.15;42.08;;;;;;;18.26;90.18;98070.72;7381646;19;20011;-72
2022/08/27 01:08:37;;;;;;;62.05;43.65;;;;;;;18.26;90.32;98065.34;7390607;19;20015;-72
2022/08/27 01:11:04;;;;;;;59.10;43.65;;;;;;;18.27;90.35;98056.28;7388040;19;20026;-73
2022/08/27 01:13:32;;;;;;;65.07;44.55;;;;;;;18.25;90.48;98063.72;7389450;19;20979;-72
2022/08/27 01:16:25;;;;;;;66.00;46.38;;;;;;;18.24;90.37;98052.16;7389471;19;20006;-72
2022/08/27 01:18:53;;;;;;;67.53;44.50;;;;;;;18.23;90.46;98050.53;7389040;19;20378;-72
2022/08/27 01:21:33;;;;;;;62.80;44.17;;;;;;;18.23;90.45;98052.41;7385833;19;20994;-73
2022/08/27 01:24:05;;;;;;;66.38;44.60;;;;;;;18.26;90.38;98051.97;7389321;19;20514;-73
2022/08/27 01:26:32;;;;;;;;;;;;;;;18.28;90.39;98050.72;7388150;19;20322;-73
2022/08/27 01:28:59;;;;;;;64.00;43.05;;;;;;;18.31;90.48;98052.97;7387322;19;19950;-73
2022/08/27 01:31:28;;;;;;;65.10;43.75;;;;;;;18.34;90.25;98052.53;7390773;19;20020;-72
2022/08/27 01:34:02;;;;;;;62.75;44.53;;;;;;;18.33;90.04;98050.91;7391624;19;20016;-72
2022/08/27 01:36:29;;;;;;;70.80;45.25;;;;;;;18.34;90.09;98060.56;7384724;19;20018;-72
2022/08/27 01:38:55;;;;;;;69.40;45.15;;;;;;;18.35;90.12;98056.88;7388363;19;20022;-72
2022/08/27 01:41:24;;;;;;;70.90;48.28;;;;;;;18.38;90.14;98058.31;7391360;19;20097;-72
2022/08/27 01:43:51;;;;;;;68.43;44.65;;;;;;;18.40;89.97;98050.84;7388894;19;20058;-72
2022/08/27 01:46:23;;;;;;;62.72;45.90;;;;;;;18.41;90.11;98058.69;7389044;19;20033;-72
2022/08/27 01:48:50;;;;;;;65.32;43.65;;;;;;;18.43;90.28;98056.63;7391125;19;20018;-72
2022/08/27 01:51:17;;;;;;;66.47;46.60;;;;;;;18.45;89.89;98047.53;7387648;19;20010;-72
2022/08/27 01:53:44;;;;;;;68.60;46.80;;;;;;;18.42;89.82;98043.44;7386432;19;20015;-72
2022/08/27 01:56:16;;;;;;;68.32;48.40;;;;;;;18.46;89.66;98046.50;7380663;19;20434;-72
2022/08/27 01:58:51;;;;;;;;;;;;;;;18.45;89.66;98047.53;7387850;19;20036;-72
2022/08/27 02:01:39;;;;;;;64.22;45.05;;;;;;;18.48;89.71;98041.75;7391809;19;19923;-72
2022/08/27 02:04:12;;;;;;;70.32;49.30;;;;;;;18.48;89.43;98047.13;7386268;19;20039;-72
2022/08/27 02:06:54;;;;;;;73.13;49.63;;;;;;;18.43;89.66;98053.94;7384728;19;20018;-72
2022/08/27 02:09:40;;;;;;;69.47;47.33;;;;;;;18.42;89.58;98038.91;7386005;19;20011;-72
2022/08/27 02:12:19;;;;;;;69.05;48.72;;;;;;;18.43;89.62;98050.44;7385604;19;20012;-72
2022/08/27 02:14:55;;;;;;;67.43;47.63;;;;;;;18.45;89.50;98044.88;7383850;19;20027;-72
2022/08/27 02:17:24;;;;;;;73.63;49.15;;;;;;;18.46;89.57;98044.66;7384998;19;20009;-72
2022/08/27 02:20:03;;;;;;;68.18;47.58;;;;;;;18.47;89.62;98040.94;7387357;19;20088;-72
2022/08/27 02:22:33;;;;;;;74.55;49.38;;;;;;;18.47;89.61;98034.75;7389145;19;20515;-72
2022/08/27 02:25:05;;;;;;;68.82;51.00;;;;;;;18.50;89.41;98040.50;7388283;19;20043;-72
2022/08/27 02:27:41;;;;;;;70.22;50.25;;;;;;;18.43;89.49;98035.19;7383402;19;20015;-72
2022/08/27 02:30:16;;;;;;;73.40;50.17;;;;;;;18.48;89.48;98039.06;7381030;19;20643;-72
2022/08/27 02:32:46;;;;;;;70.88;50.88;;;;;;;18.46;89.52;98039.31;7387735;19;20015;-72
2022/08/27 02:35:23;;;;;;;73.03;50.45;;;;;;;18.52;89.20;98038.44;7389083;19;20096;-72
2022/08/27 02:37:57;;;;;;;74.45;50.85;;;;;;;18.47;89.38;98040.13;7389891;19;20006;-72
2022/08/27 02:40:29;;;;;;;75.22;50.83;;;;;;;18.47;89.35;98048.97;7384067;19;20026;-72
2022/08/27 02:43:06;;;;;;;82.03;51.47;;;;;;;18.46;89.58;98046.50;7386530;19;20038;-72
2022/08/27 02:46:02;;;;;;;77.15;52.33;;;;;;;18.46;89.45;98042.00;7384727;19;20011;-72
2022/08/27 02:48:45;;;;;;;82.43;51.95;;;;;;;18.49;89.52;98041.56;7384811;19;20014;-72
2022/08/27 02:51:21;;;;;;;75.43;50.40;;;;;;;18.50;89.37;98045.88;7386645;19;20010;-72
2022/08/27 02:54:15;;;;;;;70.05;51.28;;;;;;;18.50;89.28;98050.41;7387362;19;20010;-72
2022/08/27 02:56:57;;;;;;;79.07;51.75;;;;;;;18.47;89.33;98045.47;7382826;19;20014;-72
2022/08/27 02:59:39;;;;;;;74.68;48.58;;;;;;;18.53;89.15;98052.66;7388581;19;20017;-72
2022/08/27 03:02:15;;;;;;;72.70;49.90;;;;;;;18.52;89.14;98053.69;7380726;19;20032;-72
2022/08/27 03:04:59;;;;;;;78.70;51.03;;;;;;;18.46;89.33;98050.03;7386418;19;20029;-72
2022/08/27 03:07:31;;;;;;;78.50;53.50;;;;;;;18.46;89.53;98047.34;7389046;19;20023;-72
2022/08/27 03:10:03;;;;;;;76.85;52.80;;;;;;;18.47;89.35;98048.97;7387075;19;20046;-72
2022/08/27 03:12:45;;;;;;;75.85;50.92;;;;;;;18.47;89.29;98046.28;7386225;19;20031;-72
2022/08/27 03:15:15;;;;;;;73.43;50.28;;;;;;;18.50;89.41;98045.03;7385593;19;20018;-72
2022/08/27 03:20:54;;;;;;;69.70;48.00;;;;;;;18.48;89.41;98052.47;7384903;19;20018;-71
2022/08/27 03:23:28;;;;;;;70.80;48.45;;;;;;;18.48;89.12;98052.47;7387603;19;20021;-72
2022/08/27 03:26:01;;;;;;;77.78;50.90;;;;;;;18.49;89.15;98048.78;7385033;19;20031;-72
2022/08/27 03:28:34;;;;;;;68.22;47.80;;;;;;;18.45;89.18;98059.06;7387095;19;20014;-71
2022/08/27 03:31:07;;;;;;;76.65;49.38;;;;;;;18.45;89.31;98052.91;7386117;19;20010;-72
2022/08/27 03:33:38;;;;;;;70.85;48.55;;;;;;;18.46;89.20;98059.88;7384606;19;20014;-72
2022/08/27 03:36:11;;;;;;;66.93;46.63;;;;;;;18.43;89.09;98045.06;7388073;19;20048;-72
2022/08/27 03:38:44;;;;;;;68.03;45.05;;;;;;;18.43;89.04;98045.06;7392287;19;20041;-72
2022/08/27 03:41:12;;;;;;;64.55;45.00;;;;;;;18.45;88.90;98052.91;7391666;19;20019;-72
2022/08/27 03:43:46;;;;;;;67.30;44.80;;;;;;;18.46;88.86;98049.19;7393556;19;20022;-73
2022/08/27 03:46:26;;;;;;;60.63;43.05;;;;;;;18.46;88.52;98050.03;7389290;19;20018;-72
2022/08/27 03:49:08;;;;;;;57.95;41.95;;;;;;;18.47;88.13;98048.97;7392968;19;20006;-72
2022/08/27 03:51:42;;;;;;;54.45;38.90;;;;;;;18.45;87.93;98047.53;7389180;19;20018;-72
2022/08/27 03:54:15;;;;;;;50.33;38.45;;;;;;;18.42;87.56;98043.44;7388930;19;20006;-72
2022/08/27 03:56:51;;;;;;;52.72;39.03;;;;;;;18.38;87.62;98042.25;7390482;19;20043;-72
2022/08/27 03:59:30;;;;;;;52.33;36.17;;;;;;;18.40;87.35;98040.16;7391299;19;20446;-72
2022/08/27 04:02:03;;;;;;;50.67;37.17;;;;;;;18.30;87.34;98037.09;7395341;19;20020;-72
2022/08/27 04:04:40;;;;;;;54.10;34.80;;;;;;;18.31;87.50;98036.09;7395113;19;20403;-72
2022/08/27 04:07:12;;;;;;;48.47;36.08;;;;;;;18.21;87.35;98032.00;7389903;19;20657;-72
2022/08/27 04:09:45;;;;;;;52.30;36.60;;;;;;;18.23;87.29;98033.66;7387481;19;20015;-72
2022/08/27 04:12:29;;;;;;;50.80;35.72;;;;;;;18.15;87.21;98040.88;7390508;19;20026;-72
2022/08/27 04:15:00;;;;;;;;;;;;;;;18.15;87.13;98032.84;7392103;19;20387;-72
2022/08/27 04:17:35;;;;;;;51.63;36.50;;;;;;;18.17;87.44;98035.34;7391582;19;19923;-72
2022/08/27 04:20:15;;;;;;;54.17;38.78;;;;;;;18.11;87.44;98034.31;7389269;19;20018;-72
2022/08/27 04:23:10;;;;;;;52.83;37.97;;;;;;;18.13;87.43;98034.09;7392503;19;22572;-72
2022/08/27 04:25:49;;;;;;;54.08;38.47;;;;;;;18.12;87.81;98040.50;7387642;19;20624;-72
2022/08/27 04:28:17;;;;;;;59.08;39.78;;;;;;;18.11;87.89;98036.16;7387991;19;20515;-72
2022/08/27 04:30:49;;;;;;;59.83;39.03;;;;;;;18.07;87.92;98040.31;7391081;19;20824;-71
2022/08/27 04:33:17;;;;;;;66.85;39.25;;;;;;;18.04;87.81;98046.09;7393617;19;20022;-72
2022/08/27 04:35:58;;;;;;;62.70;40.00;;;;;;;18.06;88.06;98044.00;7392295;19;20035;-72
2022/08/27 04:38:34;;;;;;;61.28;39.53;;;;;;;18.08;88.29;98041.94;7388953;19;20046;-72
2022/08/27 04:41:21;;;;;;;64.05;42.47;;;;;;;18.12;87.99;98044.00;7389774;19;20011;-72
2022/08/27 04:44:03;;;;;;;64.20;42.03;;;;;;;18.16;87.98;98049.75;7388617;19;20371;-72
2022/08/27 04:46:35;;;;;;;64.85;42.58;;;;;;;18.20;87.98;98048.28;7388020;19;20019;-72
2022/08/27 04:49:14;;;;;;;65.82;43.70;;;;;;;18.23;87.95;98049.72;7393726;19;20014;-72
2022/08/27 04:51:51;;;;;;;61.58;41.75;;;;;;;18.26;87.86;98049.28;7393305;19;20029;-72
2022/08/27 04:54:23;;;;;;;69.80;45.33;;;;;;;18.18;88.10;98053.03;7389228;19;20038;-72
2022/08/27 04:57:04;;;;;;;69.93;43.50;;;;;;;18.22;88.15;98054.25;7387732;19;20351;-72
2022/08/27 04:59:42;;;;;;;64.35;42.20;;;;;;;18.21;88.20;98045.38;7386296;19;20006;-72
2022/08/27 05:02:15;;;;;;;69.07;46.30;;;;;;;18.25;88.17;98048.47;7389740;19;20033;-72
2022/08/27 05:04:54;;;;;;;66.20;44.58;;;;;;;18.24;87.96;98052.16;7391903;19;20023;-72
2022/08/27 05:07:33;;;;;;;64.00;43.72;;;;;;;18.26;88.07;98044.75;7392444;19;20021;-72
2022/08/27 05:10:10;;;;;;;69.25;44.45;;;;;;;18.31;88.00;98055.66;7389838;19;20031;-73
2022/08/27 05:12:43;;;;;;;67.72;44.53;;;;;;;18.30;88.19;98050.50;7392455;19;20014;-72
2022/08/27 05:15:24;;;;;;;60.95;42.85;;;;;;;18.34;88.27;98049.88;7386513;19;20010;-72
2022/08/27 05:18:05;;;;;;;70.05;45.38;;;;;;;18.39;88.27;98057.25;7388562;19;20016;-72
2022/08/27 05:20:45;;;;;;;62.05;43.38;;;;;;;18.40;88.40;98051.72;7389557;19;20094;-72
2022/08/27 05:23:15;;;;;;;58.88;43.03;;;;;;;18.47;88.15;98050.84;7390196;19;20022;-72
2022/08/27 05:25:51;;;;;;;61.40;41.22;;;;;;;18.58;87.75;98052.84;7387944;19;20078;-72
2022/08/27 05:28:22;;;;;;;61.67;44.20;;;;;;;18.68;87.02;98053.19;7386976;19;20013;-72
2022/08/27 05:31:02;;;;;;;67.68;43.70;;;;;;;18.66;87.06;98031.13;7386527;19;20026;-72
2022/08/27 05:33:31;;;;;;;58.88;44.63;;;;;;;18.71;86.84;98039.34;7385918;19;20022;-72
2022/08/27 05:36:01;;;;;;;59.70;44.42;;;;;;;18.78;86.42;98034.81;7386838;19;20014;-72
2022/08/27 05:38:30;;;;;;;55.30;40.90;;;;;;;18.76;86.47;98033.38;7389055;19;20010;-73
2022/08/27 05:41:05;;;;;;;56.05;40.95;;;;;;;18.76;86.61;98036.88;7387591;19;20017;-72
2022/08/27 05:43:44;;;;;;;61.80;45.22;;;;;;;18.73;86.79;98031.94;7386837;19;20019;-72
2022/08/27 05:46:39;;;;;;;64.88;46.08;;;;;;;18.76;86.63;98038.75;7386658;19;20524;-72
2022/08/27 05:49:10;;;;;;;66.30;44.65;;;;;;;18.81;86.42;98037.06;7384135;19;20002;-72
2022/08/27 05:51:44;;;;;;;61.63;43.22;;;;;;;18.82;86.69;98049.41;7386352;19;20457;-72
2022/08/27 05:54:22;;;;;;;58.20;42.28;;;;;;;18.88;86.21;98044.22;7388724;19;20469;-72
2022/08/27 05:57:03;;;;;;;54.70;40.50;;;;;;;18.90;86.43;98045.63;7381280;19;20029;-72
2022/08/27 06:02:28;;;;;;;54.70;40.97;;;;;;;18.92;86.34;98040.06;7386078;19;20014;-72
2022/08/27 06:05:10;;;;;;;54.47;39.35;;;;;;;18.92;86.42;98042.75;7384260;19;20022;-72
2022/08/27 06:07:39;;;;;;;53.90;40.30;;;;;;;19.07;86.33;98048.63;7383550;19;20038;-72
2022/08/27 06:10:21;;;;;;;53.83;39.90;;;;;;;19.12;86.02;98054.16;7389236;19;20115;-72
2022/08/27 06:12:51;;;;;;;56.47;41.33;;;;;;;19.16;85.89;98051.84;7385505;19;20019;-72
2022/08/27 06:15:25;;;;;;;54.15;39.53;;;;;;;19.24;85.66;98051.56;7386348;19;20028;-72
2022/08/27 06:17:58;;;;;;;54.70;41.00;;;;;;;19.29;85.27;98049.88;7386874;19;20027;-72
2022/08/27 06:20:37;;;;;;;51.35;39.67;;;;;;;19.37;84.94;98050.63;7387506;19;20018;-72
2022/08/27 06:23:08;;;;;;;51.78;40.97;;;;;;;19.32;85.20;98053.16;7385442;19;20022;-72
2022/08/27 06:25:52;;;;;;;57.20;42.67;;;;;;;19.35;84.83;98055.41;7382655;19;20025;-72
2022/08/27 06:28:30;;;;;;;53.63;40.92;;;;;;;19.29;84.23;98049.88;7381450;19;20006;-72
2022/08/27 06:31:13;;;;;;;54.38;39.67;;;;;;;19.27;84.78;98061.84;7383064;19;20034;-72
2022/08/27 06:33:46;;;;;;;52.38;39.35;;;;;;;19.28;85.07;98055.47;7388745;19;20024;-72
2022/08/27 06:36:19;;;;;;;50.30;39.05;;;;;;;19.25;84.95;98066.66;7386954;19;20010;-72
2022/08/27 06:38:59;;;;;;;51.95;40.35;;;;;;;19.17;85.11;98065.06;7380254;19;20039;-72
2022/08/27 06:41:30;;;;;;;58.25;40.13;;;;;;;19.22;85.26;98062.53;7380540;19;20069;-72
2022/08/27 06:43:58;;;;;;;48.67;38.65;;;;;;;19.36;85.16;98070.47;7386352;19;20058;-72
2022/08/27 06:46:29;;;;;;;52.33;40.22;;;;;;;19.50;84.55;98062.06;7384639;19;20018;-72
2022/08/27 06:49:03;;;;;;;51.30;39.67;;;;;;;19.52;84.62;98076.09;7386300;19;20018;-72
2022/08/27 06:51:37;;;;;;;49.60;37.10;;;;;;;19.55;84.16;98068.66;7386304;19;20017;-72
2022/08/27 06:54:10;;;;;;;57.95;39.80;;;;;;;19.55;83.24;98068.66;7384798;19;20014;-72
2022/08/27 06:56:44;;;;;;;51.85;37.90;;;;;;;19.47;82.88;98067.88;7380797;19;20382;-72
2022/08/27 06:59:28;;;;;;;53.10;37.80;;;;;;;19.47;83.38;98069.75;7387104;19;20022;-72
2022/08/27 07:02:00;;;;;;;47.00;39.28;;;;;;;19.52;83.69;98062.66;7387738;19;20010;-72
2022/08/27 07:04:41;;;;;;;51.08;39.50;;;;;;;19.51;83.08;98068.28;7385480;19;20058;-72
2022/08/27 07:07:50;;;;;;;51.65;39.35;;;;;;;19.66;82.85;98068.75;7385288;19;20014;-72
2022/08/27 07:10:26;;;;;;;47.78;38.60;;;;;;;19.86;81.91;98065.06;7389884;19;20025;-72
2022/08/27 07:13:06;;;;;;;48.83;36.88;;;;;;;20.11;81.27;98062.28;7391440;19;20466;-72
2022/08/27 07:15:44;;;;;;;45.70;37.50;;;;;;;19.95;81.34;98061.03;7392478;19;20022;-72
2022/08/27 07:18:22;;;;;;;47.75;36.20;;;;;;;19.93;81.87;98065.78;7395179;19;20473;-72
2022/08/27 07:21:01;;;;;;;44.78;35.55;;;;;;;20.12;80.97;98072.81;7394342;19;20462;-72
2022/08/27 07:23:32;;;;;;;46.25;35.17;;;;;;;20.00;80.88;98066.53;7393622;19;20014;-72
2022/08/27 07:26:11;;;;;;;48.38;36.47;;;;;;;19.86;81.24;98071.25;7393258;19;20028;-72
2022/08/27 07:28:48;;;;;;;49.60;36.42;;;;;;;19.83;81.05;98069.00;7393581;19;20537;-72
2022/08/27 07:31:20;;;;;;;51.45;36.58;;;;;;;19.83;81.43;98079.75;7386918;19;20007;-72
2022/08/27 07:34:01;;;;;;;43.25;34.50;;;;;;;19.98;81.29;98078.56;7393850;19;20484;-72
2022/08/27 07:36:33;;;;;;;42.13;34.65;;;;;;;20.04;80.91;98083.06;7390247;19;20380;-72
2022/08/27 07:39:06;;;;;;;44.13;32.60;;;;;;;20.02;80.63;98088.63;7393494;19;20085;-72
2022/08/27 07:44:23;;;;;;;47.78;36.33;;;;;;;19.82;81.23;98082.66;7392926;19;20022;-72
2022/08/27 07:44:27;;;;;;;48.20;36.67;;;;;;;19.70;82.25;98082.56;7390931;19;20021;-72
2022/08/27 07:47:00;;;;;;;46.70;35.45;;;;;;;19.69;81.87;98087.09;7384358;19;20086;-72
2022/08/27 07:49:30;;;;;;;47.28;36.42;;;;;;;19.43;82.92;98092.66;7390007;19;20026;-72
2022/08/27 07:52:05;;;;;;;49.25;37.30;;;;;;;19.36;83.32;98097.28;7391289;19;20030;-71
2022/08/27 07:54:53;;;;;;;48.85;39.10;;;;;;;19.23;84.44;98090.97;7389888;19;20074;-72
2022/08/27 07:57:20;;;;;;;49.67;38.95;;;;;;;19.08;84.88;98093.97;7390802;19;20035;-72
2022/08/27 07:59:52;;;;;;;76.45;44.13;;;;;;;18.98;85.93;98099.00;7393226;19;20022;-72
2022/08/27 08:02:22;;;;;;;71.85;46.10;;;;;;;18.74;87.96;98099.72;7386633;19;20031;-71
2022/08/27 08:04:50;;;;;;;95.63;48.80;;;;;;;18.75;89.02;98104.09;7382661;19;20022;-71
2022/08/27 08:07:17;;;;;;;81.35;49.97;;;;;;;18.79;89.84;98113.34;7388832;19;20529;-72
2022/08/27 08:09:43;;;;;;;79.05;51.42;;;;;;;18.80;90.17;98109.63;7392987;19;20019;-72
2022/08/27 08:12:10;;;;;;;85.15;51.13;;;;;;;18.76;90.16;98108.41;7394782;19;20498;-72
2022/08/27 08:14:37;;;;;;;84.18;48.92;;;;;;;18.72;89.97;98110.69;7394547;19;20017;-72
2022/08/27 08:17:04;;;;;;;78.93;47.75;;;;;;;18.63;90.07;98117.31;7390456;19;20017;-72
2022/08/27 08:19:35;;;;;;;96.63;49.10;;;;;;;18.59;90.10;98119.59;7391888;19;20659;-71
2022/08/27 08:22:02;;;;;;;75.25;46.55;;;;;;;18.65;89.94;98115.25;7391581;19;20672;-71
2022/08/27 08:24:33;;;;;;;69.80;44.90;;;;;;;18.66;90.26;98116.88;7395945;19;20010;-71
2022/08/27 08:26:59;;;;;;;76.22;42.55;;;;;;;18.69;90.49;98107.59;7389580;19;20014;-71
2022/08/27 08:29:32;;;;;;;75.50;44.47;;;;;;;18.88;90.64;98116.59;7392787;19;20402;-71
2022/08/27 08:31:59;;;;;;;78.70;44.53;;;;;;;18.75;90.59;98112.97;7393796;19;20490;-72
2022/08/27 08:34:27;;;;;;;69.55;44.30;;;;;;;18.91;90.68;98126.91;7389631;19;20019;-72
2022/08/27 08:36:54;;;;;;;85.82;47.65;;;;;;;18.78;90.68;98123.25;7385468;19;20022;-72
2022/08/27 08:39:22;;;;;;;78.13;46.47;;;;;;;18.81;90.64;98132.72;7391600;19;20011;-72
2022/08/27 08:41:55;;;;;;;79.93;46.17;;;;;;;18.85;90.87;98126.72;7393849;19;20731;-72
2022/08/27 08:44:48;;;;;;;80.13;46.38;;;;;;;18.93;91.07;98122.97;7391903;19;20010;-72
2022/08/27 08:47:25;;;;;;;73.85;48.10;;;;;;;18.89;90.88;98129.78;7393389;19;20018;-72
2022/08/27 08:50:04;;;;;;;66.47;45.78;;;;;;;19.00;90.43;98136.31;7392602;19;20038;-72
2022/08/27 08:52:34;;;;;;;80.78;48.90;;;;;;;18.93;90.24;98138.22;7388631;19;20538;-72
2022/08/27 08:55:24;;;;;;;75.25;48.42;;;;;;;19.04;90.36;98134.88;7390188;19;20143;-72
2022/08/27 08:57:58;;;;;;;86.82;50.28;;;;;;;18.95;90.29;98136.13;7389000;19;20015;-72
2022/08/27 09:00:26;;;;;;;80.65;48.83;;;;;;;19.05;90.20;98144.53;7392882;19;20547;-72
2022/08/27 09:02:53;;;;;;;94.68;49.53;;;;;;;18.95;90.34;98139.63;7394462;19;20006;-72
2022/08/27 09:05:21;;;;;;;76.97;48.25;;;;;;;18.96;90.39;98143.16;7389153;19;20026;-72
2022/08/27 09:08:18;;;;;;;71.68;49.55;;;;;;;19.01;90.43;98144.16;7389899;19;20024;-72
2022/08/27 09:11:12;;;;;;;90.88;49.40;;;;;;;19.04;90.44;98143.72;7384841;19;20035;-72
2022/08/27 09:13:42;;;;;;;77.95;48.28;;;;;;;19.08;90.00;98139.56;7389928;19;20018;-72
2022/08/27 09:16:08;;;;;;;81.88;49.38;;;;;;;19.13;90.09;98140.78;7389902;19;20022;-72
2022/08/27 09:18:39;;;;;;;84.22;48.83;;;;;;;19.26;90.02;98149.53;7391462;19;20010;-72
2022/08/27 09:21:28;;;;;;;76.70;49.80;;;;;;;19.26;90.27;98146.06;7391238;19;20466;-72
2022/08/27 09:24:13;;;;;;;78.13;49.45;;;;;;;19.29;90.22;98149.09;7390715;19;20018;-72
2022/08/27 09:26:42;;;;;;;80.88;49.75;;;;;;;19.10;90.31;98142.03;7385129;19;20018;-72
2022/08/27 09:29:15;;;;;;;71.13;47.78;;;;;;;19.13;90.09;98138.91;7387901;19;20367;-72
2022/08/27 09:31:49;;;;;;;76.72;49.97;;;;;;;19.11;89.96;98132.94;7385664;19;20014;-72
2022/08/27 09:34:29;;;;;;;75.18;50.00;;;;;;;19.25;90.30;98126.47;7390276;19;20006;-72
2022/08/27 09:37:03;;;;;;;72.90;49.45;;;;;;;19.38;90.26;98130.06;7384183;19;20031;-72
2022/08/27 09:40:08;;;;;;;78.03;49.67;;;;;;;19.48;89.96;98133.09;7387952;19;20018;-72
2022/08/27 09:43:15;;;;;;;74.30;48.13;;;;;;;19.33;89.79;98133.41;7386618;19;20036;-72
2022/08/27 09:46:16;;;;;;;64.47;46.75;;;;;;;19.25;89.43;98129.16;7386222;19;20044;-72
2022/08/27 09:48:54;;;;;;;81.95;51.33;;;;;;;19.21;89.87;98127.91;7391803;19;20014;-72
2022/08/27 09:51:28;;;;;;;67.97;46.53;;;;;;;19.33;89.50;98121.88;7385223;19;20023;-72
2022/08/27 09:54:07;;;;;;;71.35;48.97;;;;;;;19.26;89.51;98128.09;7388623;19;20424;-73
2022/08/27 09:56:49;;;;;;;77.75;49.28;;;;;;;19.36;89.63;98124.94;7384312;19;20015;-74
2022/08/27 09:59:34;;;;;;;74.30;50.03;;;;;;;19.56;89.44;98124.75;7386528;19;22825;-73
2022/08/27 10:02:05;;;;;;;76.18;50.83;;;;;;;19.52;89.27;98123.56;7384730;19;20602;-73
2022/08/27 10:04:52;;;;;;;81.10;51.38;;;;;;;19.64;89.20;98123.66;7385357;19;20032;-74
2022/08/27 10:07:52;;;;;;;71.43;47.90;;;;;;;19.72;88.82;98124.25;7384739;19;20039;-73
2022/08/27 10:10:57;;;;;;;71.50;49.80;;;;;;;19.65;88.89;98120.78;7387195;19;20030;-75
2022/08/27 10:13:39;;;;;;;68.97;47.40;;;;;;;19.73;88.79;98117.84;7389869;19;20364;-75
2022/08/27 10:16:43;;;;;;;72.78;49.33;;;;;;;19.71;88.48;98117.22;7382201;19;20014;-75
2022/08/27 10:19:56;;;;;;;71.82;48.83;;;;;;;19.84;88.58;98118.16;7386630;19;20018;-74
2022/08/27 10:22:40;;;;;;;77.90;49.55;;;;;;;19.91;88.64;98116.22;7388699;19;20082;-75
2022/08/27 10:25:33;;;;;;;73.22;48.40;;;;;;;19.91;88.73;98119.72;7388774;19;20026;-74
2022/08/27 10:28:38;;;;;;;68.35;46.38;;;;;;;19.95;88.26;98118.22;7387352;19;20018;-74
2022/08/27 10:31:40;;;;;;;63.05;45.80;;;;;;;19.97;88.46;98125.25;7385458;19;20015;-73
2022/08/27 10:34:24;;;;;;;62.80;46.20;;;;;;;20.00;88.27;98127.50;7382127;19;20014;-74
2022/08/27 10:37:17;;;;;;;68.97;47.58;;;;;;;20.04;88.08;98124.16;7385679;19;20022;-74
2022/08/27 10:40:23;;;;;;;70.03;48.08;;;;;;;19.96;88.35;98132.50;7387481;19;20015;-75
2022/08/27 10:43:19;;;;;;;72.30;49.65;;;;;;;19.97;88.60;98128.75;7388279;19;20057;-74
2022/08/27 10:46:05;;;;;;;72.85;48.88;;;;;;;20.05;88.95;98133.03;7387881;19;20021;-74
2022/08/27 10:48:55;;;;;;;67.70;46.58;;;;;;;20.11;88.30;98138.31;7388244;19;20290;-74
2022/08/27 10:52:07;;;;;;;64.03;46.47;;;;;;;20.00;87.49;98136.38;7378607;19;20079;-75
2022/08/27 10:55:23;;;;;;;64.07;46.15;;;;;;;19.94;87.85;98148.00;7382325;19;20053;-74
2022/08/27 10:58:29;;;;;;;59.13;44.58;;;;;;;20.05;87.88;98141.06;7384749;19;20023;-75
2022/08/27 11:01:19;;;;;;;62.78;45.90;;;;;;;19.97;88.08;98152.09;7387586;19;20039;-75
2022/08/27 11:04:07;;;;;;;65.32;47.05;;;;;;;19.95;88.34;98150.44;7382926;19;20435;-73
2022/08/27 11:06:52;;;;;;;66.88;46.90;;;;;;;20.04;88.78;98147.50;7371490;19;20053;-73
2022/08/27 11:09:25;;;;;;;67.05;47.25;;;;;;;20.09;88.57;98150.31;7381343;19;20385;-74
2022/08/27 11:12:00;;;;;;;69.25;46.95;;;;;;;20.10;88.82;98150.09;7386893;19;20039;-73
2022/08/27 11:15:07;;;;;;;73.15;48.25;;;;;;;20.10;88.59;98146.59;7388160;19;20025;-74
2022/08/27 11:17:50;;;;;;;67.82;47.95;;;;;;;20.13;88.55;98141.59;7387587;19;20070;-75
2022/08/27 11:20:26;;;;;;;68.28;48.20;;;;;;;20.11;88.45;98146.38;7385487;19;20342;-74
2022/08/27 11:23:20;;;;;;;65.73;48.20;;;;;;;20.02;88.39;98138.84;7384930;19;20022;-74
2022/08/27 11:26:02;;;;;;;63.30;45.13;;;;;;;19.92;87.89;98145.53;7382934;19;20939;-74
2022/08/27 11:28:47;;;;;;;63.53;45.25;;;;;;;19.94;88.21;98148.81;7386075;19;20342;-75
2022/08/27 11:31:30;;;;;;;70.15;48.22;;;;;;;19.77;89.55;98147.72;7388312;19;20510;-74
2022/08/27 11:34:28;;;;;;;76.93;48.85;;;;;;;19.72;89.72;98147.56;7389281;19;20019;-74
2022/08/27 11:37:30;;;;;;;67.93;47.47;;;;;;;19.69;89.82;98151.50;7386593;19;20078;-75
2022/08/27 11:40:39;;;;;;;64.18;47.83;;;;;;;19.54;89.50;98145.66;7380764;19;20015;-75
2022/08/27 11:43:19;;;;;;;75.82;49.70;;;;;;;19.49;90.32;98143.59;7384510;19;20002;-74
2022/08/27 11:46:03;;;;;;;79.57;50.90;;;;;;;19.56;90.20;98142.72;7383335;19;20034;-74
2022/08/27 11:48:40;;;;;;;72.72;50.33;;;;;;;19.68;90.10;98144.50;7385619;19;20003;-74
2022/08/27 11:51:14;;;;;;;73.75;51.85;;;;;;;19.75;89.80;98139.09;7383044;19;20082;-75
2022/08/27 11:53:58;;;;;;;70.18;51.28;;;;;;;19.76;89.96;98132.69;7386368;19;20109;-74
2022/08/27 11:56:53;;;;;;;71.43;50.50;;;;;;;19.68;88.96;98131.09;7383603;19;20025;-75
2022/08/27 11:59:36;;;;;;;73.78;51.33;;;;;;;19.79;89.02;98134.09;7391176;19;20100;-75
2022/08/27 12:02:50;;;;;;;86.43;54.28;;;;;;;19.85;89.43;98134.06;7388744;19;20010;-75
2022/08/27 12:05:38;;;;;;;69.80;50.75;;;;;;;19.93;89.27;98127.53;7392590;19;20339;-75
2022/08/27 12:08:33;;;;;;;78.00;52.35;;;;;;;19.88;89.35;98122.88;7393654;19;20006;-75
2022/08/27 12:11:40;;;;;;;76.53;51.63;;;;;;;19.89;89.29;98123.69;7389558;19;20042;-75